createdAt,value
2022-12-20T00:00:51.757Z,12.30
2022-12-20T00:03:18.432Z,11.80
2022-12-20T00:05:45.039Z,11.60
2022-12-20T00:08:11.903Z,11.50
2022-12-20T00:10:39.913Z,12.17
2022-12-20T00:13:06.902Z,12.37
2022-12-20T00:15:33.529Z,12.50
2022-12-20T00:18:00.476Z,12.13
2022-12-20T00:20:27.997Z,12.30
2022-12-20T00:22:54.700Z,11.83
2022-12-20T00:25:21.852Z,11.57
2022-12-20T00:27:49.008Z,11.37
2022-12-20T00:30:15.890Z,11.77
2022-12-20T00:32:42.413Z,11.30
2022-12-20T00:35:09.122Z,11.90
2022-12-20T00:37:35.638Z,11.00
2022-12-20T00:40:02.232Z,11.67
2022-12-20T00:42:28.753Z,11.73
2022-12-20T00:44:55.192Z,11.27
2022-12-20T00:47:21.843Z,10.57
2022-12-20T00:49:48.304Z,11.30
2022-12-20T00:52:14.746Z,11.47
2022-12-20T00:54:41.242Z,10.20
2022-12-20T00:57:07.673Z,11.23
2022-12-20T00:59:34.259Z,10.67
2022-12-20T01:02:00.855Z,9.93
2022-12-20T01:04:27.544Z,10.50
2022-12-20T01:06:53.983Z,10.70
2022-12-20T01:09:20.465Z,10.63
2022-12-20T01:11:46.901Z,11.03
2022-12-20T01:14:15.292Z,10.83
2022-12-20T01:16:44.898Z,10.63
2022-12-20T01:19:15.366Z,10.00
2022-12-20T01:21:44.713Z,10.57
2022-12-20T01:24:12.625Z,10.70
2022-12-20T01:26:39.288Z,10.10
2022-12-20T01:29:05.875Z,10.57
2022-12-20T01:31:32.753Z,10.07
2022-12-20T01:33:59.693Z,10.63
2022-12-20T01:36:29.402Z,11.37
2022-12-20T01:39:01.679Z,10.27
2022-12-20T01:41:29.054Z,10.43
2022-12-20T01:43:58.584Z,9.97
2022-12-20T01:46:27.836Z,9.57
2022-12-20T01:49:00.433Z,10.23
2022-12-20T01:51:27.737Z,9.40
2022-12-20T01:53:58.733Z,9.10
2022-12-20T01:56:25.269Z,9.70
2022-12-20T01:58:52.920Z,9.83
2022-12-20T02:01:19.488Z,10.57
2022-12-20T02:03:46.624Z,9.93
2022-12-20T02:06:22.097Z,10.13
2022-12-20T02:08:49.858Z,9.50
2022-12-20T02:11:31.518Z,10.07
2022-12-20T02:14:19.283Z,10.50
2022-12-20T02:16:53.824Z,10.97
2022-12-20T02:19:58.025Z,10.10
2022-12-20T02:22:24.474Z,9.87
2022-12-20T02:25:17.085Z,10.87
2022-12-20T02:27:57.244Z,10.73
2022-12-20T02:30:28.097Z,11.00
2022-12-20T02:33:01.067Z,10.60
2022-12-20T02:35:31.751Z,11.53
2022-12-20T02:38:00.897Z,10.97
2022-12-20T02:40:39.883Z,11.23
2022-12-20T02:43:29.163Z,10.93
2022-12-20T02:45:57.566Z,10.33
2022-12-20T02:48:25.938Z,12.47
2022-12-20T02:50:54.154Z,12.80
2022-12-20T02:53:21.488Z,11.93
2022-12-20T02:55:54.837Z,13.03
2022-12-20T02:58:43.104Z,12.60
2022-12-20T03:01:17.877Z,12.10
2022-12-20T03:03:44.699Z,12.67
2022-12-20T03:06:11.215Z,13.10
2022-12-20T03:08:37.684Z,12.90
2022-12-20T03:11:04.234Z,14.30
2022-12-20T03:13:30.715Z,14.40
2022-12-20T03:15:57.231Z,14.90
2022-12-20T03:18:23.690Z,15.67
2022-12-20T03:20:50.144Z,16.20
2022-12-20T03:23:16.622Z,15.57
2022-12-20T03:25:43.119Z,17.40
2022-12-20T03:28:09.576Z,17.90
2022-12-20T03:30:36.518Z,18.23
2022-12-20T03:33:03.012Z,16.63
2022-12-20T03:35:29.544Z,17.43
2022-12-20T03:37:56.458Z,17.17
2022-12-20T03:40:23.279Z,17.10
2022-12-20T03:42:49.804Z,18.83
2022-12-20T03:45:16.390Z,16.87
2022-12-20T03:47:42.968Z,17.90
2022-12-20T03:50:09.817Z,17.03
2022-12-20T03:52:36.316Z,17.27
2022-12-20T03:55:03.471Z,17.30
2022-12-20T03:57:29.948Z,18.23
2022-12-20T03:59:56.438Z,14.87
2022-12-20T04:02:23.115Z,15.27
2022-12-20T04:04:49.931Z,15.37
2022-12-20T04:07:16.463Z,14.30
2022-12-20T04:09:42.921Z,14.80
2022-12-20T04:12:09.448Z,15.23
2022-12-20T04:14:37.365Z,15.83
2022-12-20T04:17:04.333Z,14.70
2022-12-20T04:19:30.830Z,14.53
2022-12-20T04:22:04.641Z,15.13
2022-12-20T04:24:32.329Z,13.57
2022-12-20T04:26:58.803Z,15.93
2022-12-20T04:29:25.300Z,15.63
2022-12-20T04:31:51.836Z,14.13
2022-12-20T04:34:18.417Z,14.30
2022-12-20T04:36:44.899Z,15.30
2022-12-20T04:39:11.372Z,14.83
2022-12-20T04:41:37.882Z,14.63
2022-12-20T04:44:04.441Z,14.20
2022-12-20T04:46:30.958Z,13.90
2022-12-20T04:48:59.290Z,14.53
2022-12-20T04:51:27.208Z,13.57
2022-12-20T04:53:54.101Z,14.70
2022-12-20T04:56:20.524Z,14.90
2022-12-20T04:58:48.325Z,15.07
2022-12-20T05:01:15.229Z,14.00
2022-12-20T05:03:42.045Z,14.20
2022-12-20T05:06:08.935Z,13.30
2022-12-20T05:08:35.540Z,14.70
2022-12-20T05:11:02.301Z,14.37
2022-12-20T05:13:28.847Z,15.63
2022-12-20T05:15:56.310Z,14.47
2022-12-20T05:18:23.609Z,15.13
2022-12-20T05:21:10.075Z,14.57
2022-12-20T05:23:55.843Z,15.23
2022-12-20T05:26:24.658Z,13.20
2022-12-20T05:28:52.759Z,14.33
2022-12-20T05:31:19.296Z,13.73
2022-12-20T05:33:45.845Z,13.00
2022-12-20T05:36:12.333Z,13.30
2022-12-20T05:38:38.901Z,12.13
2022-12-20T05:41:06.726Z,10.90
2022-12-20T05:43:33.548Z,11.07
2022-12-20T05:46:00.399Z,11.93
2022-12-20T05:48:27.058Z,11.50
2022-12-20T05:50:53.530Z,12.00
2022-12-20T05:53:20.124Z,11.80
2022-12-20T05:55:51.698Z,10.97
2022-12-20T05:58:18.464Z,11.37
2022-12-20T06:00:45.488Z,11.67
2022-12-20T06:03:12.300Z,11.70
2022-12-20T06:05:39.711Z,11.30
2022-12-20T06:08:07.325Z,11.53
2022-12-20T06:10:37.620Z,12.10
2022-12-20T06:13:04.613Z,11.43
2022-12-20T06:15:31.411Z,13.23
2022-12-20T06:17:58.088Z,11.23
2022-12-20T06:20:24.823Z,11.90
2022-12-20T06:22:52.628Z,11.07
2022-12-20T06:25:19.297Z,12.07
2022-12-20T06:27:45.786Z,12.30
2022-12-20T06:30:13.155Z,12.00
2022-12-20T06:32:39.648Z,13.07
2022-12-20T06:35:06.694Z,12.87
2022-12-20T06:37:33.272Z,11.07
2022-12-20T06:40:00.296Z,11.10
2022-12-20T06:42:26.808Z,10.87
2022-12-20T06:44:53.261Z,11.07
2022-12-20T06:47:19.809Z,11.63
2022-12-20T06:49:46.246Z,12.30
2022-12-20T06:52:12.784Z,12.07
2022-12-20T06:54:39.236Z,11.67
2022-12-20T06:57:06.926Z,13.40
2022-12-20T06:59:33.568Z,11.83
2022-12-20T07:02:00.273Z,13.50
2022-12-20T07:04:27.042Z,13.23
2022-12-20T07:06:53.582Z,13.63
2022-12-20T07:09:20.037Z,12.73
2022-12-20T07:11:46.459Z,10.60
2022-12-20T07:14:12.981Z,12.03
2022-12-20T07:16:42.729Z,11.17
2022-12-20T07:19:14.251Z,12.30
2022-12-20T07:21:40.793Z,12.40
2022-12-20T07:24:08.092Z,10.77
2022-12-20T07:26:34.681Z,11.87
2022-12-20T07:29:01.890Z,11.57
2022-12-20T07:31:28.411Z,11.13
2022-12-20T07:33:54.914Z,11.73
2022-12-20T07:36:21.389Z,10.73
2022-12-20T07:38:49.081Z,10.40
2022-12-20T07:41:18.097Z,10.90
2022-12-20T07:43:44.708Z,12.27
2022-12-20T07:46:13.169Z,11.10
2022-12-20T07:48:39.821Z,12.63
2022-12-20T07:51:08.659Z,12.20
2022-12-20T07:53:38.292Z,12.60
2022-12-20T07:56:05.640Z,12.30
2022-12-20T07:58:35.063Z,11.73
2022-12-20T08:01:01.801Z,12.83
2022-12-20T08:03:32.058Z,11.57
2022-12-20T08:06:00.990Z,12.00
2022-12-20T08:08:27.606Z,11.73
2022-12-20T08:10:54.104Z,11.77
2022-12-20T08:13:20.598Z,12.43
2022-12-20T08:15:47.089Z,12.97
2022-12-20T08:18:13.580Z,12.63
2022-12-20T08:20:40.039Z,14.70
2022-12-20T08:23:06.977Z,13.17
2022-12-20T08:25:41.192Z,14.43
2022-12-20T08:28:08.122Z,12.40
2022-12-20T08:30:34.624Z,11.97
2022-12-20T08:33:01.157Z,11.37
2022-12-20T08:35:27.627Z,11.13
2022-12-20T08:37:54.133Z,13.40
2022-12-20T08:40:20.773Z,11.13
2022-12-20T08:42:47.375Z,12.10
2022-12-20T08:45:13.877Z,12.63
2022-12-20T08:47:40.569Z,13.57
2022-12-20T08:50:07.658Z,12.10
2022-12-20T08:52:34.176Z,13.63
2022-12-20T08:55:01.911Z,12.93
2022-12-20T08:57:28.799Z,11.50
2022-12-20T08:59:55.261Z,11.23
2022-12-20T09:02:21.996Z,10.67
2022-12-20T09:04:48.773Z,9.93
2022-12-20T09:07:15.212Z,9.20
2022-12-20T09:09:41.705Z,8.60
2022-12-20T09:12:08.153Z,8.70
2022-12-20T09:14:34.700Z,8.37
2022-12-20T09:17:01.173Z,9.20
2022-12-20T09:19:29.547Z,8.50
2022-12-20T09:21:56.209Z,8.60
2022-12-20T09:24:22.756Z,8.87
2022-12-20T09:26:50.314Z,8.17
2022-12-20T09:29:25.812Z,7.43
2022-12-20T09:31:53.671Z,8.43
2022-12-20T09:34:20.152Z,8.93
2022-12-20T09:36:46.622Z,7.93
2022-12-20T09:39:13.128Z,8.90
2022-12-20T09:41:41.418Z,8.13
2022-12-20T09:44:17.050Z,8.13
2022-12-20T09:46:44.459Z,8.40
2022-12-20T09:49:16.220Z,8.07
2022-12-20T09:51:54.747Z,7.90
2022-12-20T09:54:27.290Z,7.70
2022-12-20T09:57:04.500Z,8.33
2022-12-20T09:59:39.547Z,9.33
2022-12-20T10:02:43.578Z,9.23
2022-12-20T10:04:58.901Z,9.13
2022-12-20T10:07:37.872Z,10.03
2022-12-20T10:10:21.954Z,10.67
2022-12-20T10:13:00.874Z,11.27
2022-12-20T10:15:35.219Z,12.37
2022-12-20T10:18:01.704Z,12.93
2022-12-20T10:20:39.795Z,11.90
2022-12-20T10:23:17.782Z,12.57
2022-12-20T10:25:46.149Z,17.87
2022-12-20T10:28:15.475Z,15.70
2022-12-20T10:30:42.746Z,14.27
2022-12-20T10:33:21.737Z,18.00
2022-12-20T10:35:50.671Z,13.40
2022-12-20T10:38:21.008Z,13.40
2022-12-20T10:41:21.120Z,13.43
2022-12-20T10:43:52.848Z,14.37
2022-12-20T10:46:19.485Z,13.63
2022-12-20T10:48:48.479Z,13.63
2022-12-20T10:51:25.330Z,15.63
2022-12-20T10:53:54.909Z,15.00
2022-12-20T10:56:32.836Z,14.03
2022-12-20T10:59:23.688Z,14.37
2022-12-20T11:01:50.780Z,12.20
2022-12-20T11:04:32.259Z,13.23
2022-12-20T11:07:01.047Z,12.00
2022-12-20T11:09:36.065Z,12.13
2022-12-20T11:12:05.655Z,12.83
2022-12-20T11:14:39.145Z,11.77
2022-12-20T11:17:35.568Z,12.70
2022-12-20T11:20:08.195Z,13.63
2022-12-20T11:23:05.556Z,13.40
2022-12-20T11:25:50.804Z,14.97
2022-12-20T11:28:36.439Z,15.63
2022-12-20T11:31:06.021Z,15.83
2022-12-20T11:33:47.560Z,15.20
2022-12-20T11:36:37.188Z,13.83
2022-12-20T11:39:36.191Z,13.27
2022-12-20T11:42:14.704Z,14.70
2022-12-20T11:45:03.545Z,14.97
2022-12-20T11:47:55.916Z,13.67
2022-12-20T11:50:31.527Z,13.10
2022-12-20T11:53:00.678Z,12.23
2022-12-20T11:55:41.938Z,12.13
2022-12-20T11:58:26.321Z,12.73
2022-12-20T12:00:58.288Z,12.60
2022-12-20T12:03:29.135Z,13.60
2022-12-20T12:06:29.392Z,13.50
2022-12-20T12:09:11.940Z,14.70
2022-12-20T12:15:17.446Z,12.73
2022-12-20T12:18:11.823Z,14.27
2022-12-20T12:20:56.624Z,12.50
2022-12-20T12:23:29.840Z,12.07
2022-12-20T12:25:58.444Z,12.10
2022-12-20T12:28:24.975Z,11.23
2022-12-20T12:31:04.092Z,11.07
2022-12-20T12:33:50.826Z,11.20
2022-12-20T12:36:45.203Z,10.33
2022-12-20T12:39:31.882Z,11.67
2022-12-20T12:42:35.316Z,11.47
2022-12-20T12:45:09.977Z,10.83
2022-12-20T12:47:40.398Z,10.83
2022-12-20T12:50:14.949Z,10.53
2022-12-20T12:52:46.180Z,9.97
2022-12-20T12:55:50.600Z,9.43
2022-12-20T12:58:24.171Z,10.30
2022-12-20T13:00:58.256Z,9.17
2022-12-20T13:03:48.476Z,8.80
2022-12-20T13:06:25.250Z,8.70
2022-12-20T13:09:00.731Z,8.07
2022-12-20T13:11:34.007Z,7.93
2022-12-20T13:14:24.822Z,7.83
2022-12-20T13:17:13.106Z,7.33
2022-12-20T13:19:52.103Z,7.03
2022-12-20T13:22:23.860Z,8.07
2022-12-20T13:25:04.019Z,7.43
2022-12-20T13:27:33.189Z,8.37
2022-12-20T13:30:11.983Z,7.67
2022-12-20T13:32:47.887Z,7.93
2022-12-20T13:35:26.694Z,7.40
2022-12-20T13:38:06.317Z,7.63
2022-12-20T13:40:35.425Z,6.90
2022-12-20T13:43:20.303Z,7.23
2022-12-20T13:45:51.811Z,7.13
2022-12-20T13:48:23.134Z,7.13
2022-12-20T13:50:52.931Z,6.73
2022-12-20T13:53:22.228Z,6.77
2022-12-20T13:55:49.708Z,6.73
2022-12-20T13:58:19.056Z,7.47
2022-12-20T14:00:47.630Z,6.80
2022-12-20T14:03:19.946Z,7.37
2022-12-20T14:05:46.584Z,8.10
2022-12-20T14:08:25.210Z,6.83
2022-12-20T14:10:52.803Z,7.63
2022-12-20T14:13:24.477Z,8.07
2022-12-20T14:15:51.995Z,7.70
2022-12-20T14:18:24.766Z,8.03
2022-12-20T14:20:58.410Z,7.10
2022-12-20T14:23:45.856Z,7.20
2022-12-20T14:26:17.332Z,7.93
2022-12-20T14:28:47.217Z,8.00
2022-12-20T14:31:33.705Z,11.30
2022-12-20T14:34:11.801Z,7.93
2022-12-20T14:36:40.053Z,9.30
2022-12-20T14:39:27.622Z,10.43
2022-12-20T14:42:09.854Z,8.13
2022-12-20T14:44:36.420Z,9.00
2022-12-20T14:47:17.108Z,9.40
2022-12-20T14:49:54.094Z,10.03
2022-12-20T14:52:25.374Z,9.17
2022-12-20T14:55:11.068Z,8.87
2022-12-20T14:57:39.344Z,9.30
2022-12-20T15:00:14.025Z,10.57
2022-12-20T15:02:55.918Z,10.17
2022-12-20T15:05:34.954Z,10.80
2022-12-20T15:08:19.598Z,9.17
2022-12-20T15:10:59.969Z,9.93
2022-12-20T15:13:36.732Z,10.07
2022-12-20T15:16:14.591Z,9.77
2022-12-20T15:18:41.409Z,10.10
2022-12-20T15:21:15.236Z,10.33
2022-12-20T15:23:48.235Z,10.53
2022-12-20T15:26:20.853Z,10.43
2022-12-20T15:28:47.546Z,11.97
2022-12-20T15:31:18.921Z,11.23
2022-12-20T15:33:46.221Z,11.43
2022-12-20T15:36:21.603Z,12.60
2022-12-20T15:39:11.325Z,11.70
2022-12-20T15:41:34.910Z,13.17
2022-12-20T15:44:05.857Z,14.07
2022-12-20T15:46:32.742Z,13.43
2022-12-20T15:48:59.428Z,13.30
2022-12-20T15:51:32.574Z,14.70
2022-12-20T15:54:00.692Z,14.57
2022-12-20T15:56:28.059Z,13.73
2022-12-20T15:58:54.716Z,14.77
2022-12-20T16:01:39.805Z,14.53
2022-12-20T16:04:08.093Z,16.40
2022-12-20T16:06:34.632Z,17.67
2022-12-20T16:09:01.280Z,17.20
2022-12-20T16:11:29.640Z,16.37
2022-12-20T16:13:57.617Z,17.37
2022-12-20T16:16:29.479Z,17.67
2022-12-20T16:18:56.364Z,17.50
2022-12-20T16:21:25.447Z,17.77
2022-12-20T16:23:52.238Z,19.83
2022-12-20T16:26:21.397Z,18.67
2022-12-20T16:28:49.325Z,18.97
2022-12-20T16:31:25.667Z,19.77
2022-12-20T16:33:52.842Z,18.80
2022-12-20T16:36:19.411Z,20.23
2022-12-20T16:38:46.217Z,20.77
2022-12-20T16:41:15.411Z,20.90
2022-12-20T16:43:42.553Z,23.17
2022-12-20T16:46:13.898Z,23.93
2022-12-20T16:48:41.734Z,19.00
2022-12-20T16:51:33.537Z,23.60
2022-12-20T16:54:21.377Z,20.77
2022-12-20T16:56:51.948Z,23.03
2022-12-20T16:59:21.243Z,22.30
2022-12-20T17:01:49.356Z,21.73
2022-12-20T17:04:17.604Z,22.97
2022-12-20T17:06:44.887Z,24.53
2022-12-20T17:11:58.860Z,21.20
2022-12-20T17:14:25.323Z,21.83
2022-12-20T17:16:51.850Z,22.77
2022-12-20T17:19:18.330Z,23.03
2022-12-20T17:24:31.394Z,23.70
2022-12-20T17:26:57.941Z,25.17
2022-12-20T17:29:26.225Z,26.57
2022-12-20T17:31:57.047Z,26.27
2022-12-20T17:34:28.056Z,26.63
2022-12-20T17:36:56.625Z,27.13
2022-12-20T17:39:24.903Z,26.37
2022-12-20T17:41:53.128Z,28.53
2022-12-20T17:44:25.531Z,26.67
2022-12-20T17:46:54.605Z,29.73
2022-12-20T17:49:23.025Z,29.03
2022-12-20T17:51:51.588Z,30.23
2022-12-20T17:54:20.418Z,28.90
2022-12-20T17:56:47.801Z,30.30
2022-12-20T17:59:15.158Z,31.03
2022-12-20T18:01:43.195Z,30.47
2022-12-20T18:04:12.499Z,33.67
2022-12-20T18:06:40.416Z,31.47
2022-12-20T18:09:12.183Z,33.27
2022-12-20T18:11:38.798Z,36.23
2022-12-20T18:14:05.280Z,32.93
2022-12-20T18:16:35.042Z,34.43
2022-12-20T18:19:02.332Z,35.87
2022-12-20T18:21:29.151Z,35.73
2022-12-20T18:23:56.134Z,36.10
2022-12-20T18:26:30.644Z,38.27
2022-12-20T18:29:01.261Z,35.70
2022-12-20T18:31:29.791Z,38.50
2022-12-20T18:33:58.430Z,37.87
2022-12-20T18:36:27.821Z,37.67
2022-12-20T18:38:54.414Z,40.53
2022-12-20T18:41:26.381Z,47.40
2022-12-20T18:43:53.922Z,43.70
2022-12-20T18:46:22.356Z,41.20
2022-12-20T18:48:53.792Z,42.80
2022-12-20T18:51:22.665Z,46.03
2022-12-20T18:53:50.442Z,47.03
2022-12-20T18:56:19.902Z,49.23
2022-12-20T18:58:47.468Z,42.77
2022-12-20T19:01:26.030Z,48.13
2022-12-20T19:03:53.323Z,44.87
2022-12-20T19:06:20.484Z,41.67
2022-12-20T19:08:47.481Z,40.23
2022-12-20T19:11:17.014Z,43.03
2022-12-20T19:13:43.835Z,42.43
2022-12-20T19:16:13.088Z,40.73
2022-12-20T19:18:40.523Z,41.30
2022-12-20T19:21:10.838Z,39.37
2022-12-20T19:23:38.540Z,41.33
2022-12-20T19:26:07.487Z,45.50
2022-12-20T19:28:34.575Z,46.13
2022-12-20T19:31:21.710Z,55.33
2022-12-20T19:33:49.870Z,44.20
2022-12-20T19:36:19.614Z,46.10
2022-12-20T19:38:48.507Z,48.93
2022-12-20T19:41:16.091Z,45.63
2022-12-20T19:43:43.556Z,43.60
2022-12-20T19:46:13.984Z,47.27
2022-12-20T19:48:42.147Z,50.97
2022-12-20T19:51:11.781Z,48.00
2022-12-20T19:53:39.752Z,51.67
2022-12-20T19:56:08.727Z,49.33
2022-12-20T19:58:36.056Z,45.70
2022-12-20T20:01:05.054Z,50.67
2022-12-20T20:03:32.608Z,47.13
2022-12-20T20:05:59.307Z,49.70
2022-12-20T20:08:25.887Z,46.10
2022-12-20T20:10:54.153Z,49.77
2022-12-20T20:13:20.759Z,45.40
2022-12-20T20:15:51.623Z,49.03
2022-12-20T20:18:18.249Z,46.17
2022-12-20T20:20:44.820Z,48.23
2022-12-20T20:23:11.336Z,53.93
2022-12-20T20:25:37.996Z,44.33
2022-12-20T20:28:04.893Z,51.57
2022-12-20T20:30:31.368Z,50.47
2022-12-20T20:32:57.905Z,50.87
2022-12-20T20:35:24.390Z,50.10
2022-12-20T20:37:51.844Z,49.87
2022-12-20T20:40:18.302Z,52.77
2022-12-20T20:42:44.750Z,52.70
2022-12-20T20:45:11.470Z,46.17
2022-12-20T20:47:37.979Z,50.70
2022-12-20T20:50:05.105Z,48.67
2022-12-20T20:52:31.532Z,48.07
2022-12-20T20:54:58.771Z,48.67
2022-12-20T20:57:25.354Z,45.87
2022-12-20T20:59:51.967Z,49.67
2022-12-20T21:02:20.951Z,45.87
2022-12-20T21:05:14.415Z,52.13
2022-12-20T21:07:34.149Z,49.27
2022-12-20T21:10:00.621Z,54.57
2022-12-20T21:12:27.124Z,52.47
2022-12-20T21:15:21.322Z,56.17
2022-12-20T21:17:40.370Z,51.87
2022-12-20T21:20:07.517Z,56.33
2022-12-20T21:22:34.007Z,51.83
2022-12-20T21:25:00.543Z,51.00
2022-12-20T21:27:26.982Z,54.17
2022-12-20T21:29:53.460Z,49.30
2022-12-20T21:32:19.926Z,53.43
2022-12-20T21:34:46.369Z,52.60
2022-12-20T21:37:12.960Z,57.50
2022-12-20T21:39:39.422Z,53.83
2022-12-20T21:42:05.911Z,56.00
2022-12-20T21:44:32.399Z,56.43
2022-12-20T21:46:58.976Z,56.50
2022-12-20T21:49:25.482Z,58.07
2022-12-20T21:51:56.419Z,62.17
2022-12-20T21:54:23.673Z,55.53
2022-12-20T21:56:51.287Z,55.37
2022-12-20T21:59:18.501Z,51.73
2022-12-20T22:01:48.133Z,48.87
2022-12-20T22:04:15.593Z,50.33
2022-12-20T22:06:43.203Z,55.07
2022-12-20T22:09:10.256Z,48.50
2022-12-20T22:11:37.131Z,50.53
2022-12-20T22:14:03.742Z,47.80
2022-12-20T22:16:32.287Z,47.23
2022-12-20T22:18:59.590Z,40.50
2022-12-20T22:21:28.139Z,39.30
2022-12-20T22:23:56.256Z,33.63
2022-12-20T22:26:25.160Z,28.67
2022-12-20T22:28:54.521Z,32.37
2022-12-20T22:31:23.376Z,28.67
2022-12-20T22:33:54.088Z,31.93
2022-12-20T22:36:20.864Z,29.97
2022-12-20T22:38:50.187Z,32.97
2022-12-20T22:41:20.045Z,32.33
2022-12-20T22:43:47.346Z,32.03
2022-12-20T22:46:15.500Z,31.77
2022-12-20T22:48:43.544Z,31.43
2022-12-20T22:51:16.071Z,30.67
2022-12-20T22:53:43.304Z,31.90
2022-12-20T22:56:13.632Z,33.33
2022-12-20T22:58:41.351Z,31.13
2022-12-20T23:01:10.638Z,29.73
2022-12-20T23:03:37.394Z,36.03
2022-12-20T23:06:06.035Z,36.13
2022-12-20T23:08:35.295Z,33.10
2022-12-20T23:11:20.613Z,36.10
2022-12-20T23:14:05.890Z,32.20
2022-12-20T23:16:32.578Z,30.37
2022-12-20T23:19:01.858Z,33.63
2022-12-20T23:21:48.255Z,33.47
2022-12-20T23:24:15.289Z,34.70
2022-12-20T23:26:42.690Z,31.13
2022-12-20T23:29:10.103Z,32.17
2022-12-20T23:31:36.707Z,31.93
2022-12-20T23:34:03.514Z,31.73
2022-12-20T23:36:30.463Z,31.07
2022-12-20T23:38:56.943Z,31.50
2022-12-20T23:41:23.716Z,31.73
2022-12-20T23:43:50.284Z,35.10
2022-12-20T23:46:18.548Z,32.17
2022-12-20T23:48:45.183Z,33.63
2022-12-20T23:51:11.711Z,32.83
2022-12-20T23:53:38.407Z,30.77
2022-12-20T23:56:13.151Z,33.93
2022-12-20T23:58:39.872Z,30.83
